• Join FlightAware (Why Join?)
  • Login
  • US Flag 
08:59PM EDT


 

Airport Tracker/Info


-or-


 

Live Flight TrackerFlight Track Log ✈ UCA597 ✈ 09-Sep-2013 ✈ KIAD - KBGM

Flight Track Log - Related Links

Times and Time Zones

All times are in EDT time to prevent confusion due to time zone crossing. See the UCA597 flight status page for this flight to view local times or setup timezone preferences in your user account.

Time Position Orientation Groundspeed Altitude Reporting Facility
EDT Latitude Longitude Course Direction KTS MPH feet Rate Location/Type
05:44PM 38.9500 -77.5000 293° West 145 167 1,400  Level Potomac TRACON
05:45PM 38.9667 -77.5500 293° West 193 222 2,400 1,200 Climbing Potomac TRACON
05:46PM 39.0000 -77.6167 303° West 194 223 3,900 1,440 Climbing Potomac TRACON
05:47PM 39.0500 -77.6500 333° Northwest 202 232 5,200 1,500 Climbing Potomac TRACON
05:48PM 39.1000 -77.6667 345° North 195 224 6,900 1,440 Climbing Potomac TRACON
05:49PM 39.1500 -77.6833 346° North 194 223 8,200 1,320 Climbing Potomac TRACON
05:50PM 39.2000 -77.6833 360° North 191 220 9,500 1,260 Climbing Potomac TRACON
05:51PM 39.2500 -77.6667 14° North 203 234 10,800 1,200 Climbing Potomac TRACON
05:52PM 39.3000 -77.6333 27° Northeast 207 238 12,000 1,200 Climbing Potomac TRACON
05:53PM 39.3667 -77.6000 21° North 217 250 13,200 1,200 Climbing Potomac TRACON
05:54PM 39.4350 -77.5639 22° Northeast 212 244 15,000 1,020 Climbing Washington Center
05:55PM 39.4897 -77.5358 22° Northeast 212 244 15,800 720 Climbing Washington Center
05:56PM 39.5486 -77.5050 22° Northeast 218 251 16,500 780 Climbing Washington Center
05:58PM 39.6447 -77.4550 22° Northeast 225 259 18,000 900 Climbing New York Center
05:59PM 39.7072 -77.4528 North 204 235 18,900 480 Climbing New York Center
06:00PM 39.7658 -77.4503 North 204 235 19,000  Climbing New York Center
06:01PM 39.8386 -77.4572 356° North 229 264 19,000  Level New York Center
06:02PM 39.8908 -77.4919 333° Northwest 234 269 19,000  Level New York Center
06:03PM 39.9617 -77.5286 338° Northwest 245 282 19,000  Level New York Center
06:04PM 40.0161 -77.5583 337° Northwest 245 282 19,000  Level New York Center
06:05PM 40.0872 -77.5925 340° North 245 282 19,000  Level New York Center
06:06PM 40.1453 -77.5628 21° North 236 272 19,000  Level New York Center
06:07PM 40.2167 -77.5153 27° Northeast 249 287 19,000  Level New York Center
06:08PM 40.2753 -77.4747 28° Northeast 268 308 19,000  Level New York Center
06:09PM 40.3492 -77.4247 27° Northeast 268 308 19,000  Level New York Center
06:10PM 40.4078 -77.3839 28° Northeast 268 308 19,000  Level New York Center
06:11PM 40.4814 -77.3336 27° Northeast 268 308 19,000  Level New York Center
06:12PM 40.5400 -77.2900 29° Northeast 268 308 19,000  Level New York Center
06:13PM 40.6156 -77.2425 26° Northeast 273 314 19,000 -240 Level New York Center
06:14PM 40.6831 -77.1914 30° Northeast 273 314 18,600 -480 Descending New York Center
06:15PM 40.7544 -77.1433 27° Northeast 273 314 18,100 -420 Descending New York Center
06:16PM 40.8258 -77.0950 27° Northeast 273 314 17,800 -420 Descending New York Center
06:17PM 40.8972 -77.0442 28° Northeast 278 320 17,300 -420 Descending New York Center
06:18PM 40.9708 -76.9931 28° Northeast 283 326 17,000 -540 Descending New York Center
06:19PM 41.0403 -76.9417 29° Northeast 283 326 16,300 -780 Descending New York Center
06:20PM 41.1114 -76.8931 27° Northeast 283 326 15,500 -660 Descending New York Center
06:21PM 41.1806 -76.8442 28° Northeast 283 326 15,000 -300 Descending New York Center
06:22PM 41.2497 -76.7981 27° Northeast 278 320 15,000  Level New York Center
06:23PM 41.3189 -76.7489 28° Northeast 273 314 15,000  Level New York Center
06:24PM 41.3858 -76.6994 29° Northeast 273 314 15,000  Level New York Center
06:25PM 41.4467 -76.6522 30° Northeast 278 320 15,000  Level New York Center
06:26PM 41.5200 -76.5978 29° Northeast 278 320 15,000  Level New York Center
06:27PM 41.5889 -76.5511 27° Northeast 273 314 15,000 -480 Level New York Center
06:28PM 41.6600 -76.5017 27° Northeast 273 314 14,100 -1,020 Descending New York Center
06:29PM 41.7272 -76.4517 29° Northeast 291 335 13,000 -1,200 Descending New York Center
06:30PM 41.7983 -76.3994 29° Northeast 291 335 11,800 -1,380 Descending New York Center
06:31PM 41.8761 -76.3419 29° Northeast 292 336 10,300 -1,440 Descending New York Center
06:32PM 41.9450 -76.2919 28° Northeast 287 330 9,000 -1,620 Descending New York Center
06:33PM 42.0097 -76.2444 29° Northeast 273 314 7,100 -1,860 Descending New York Center
06:34PM 42.0633 -76.2069 27° Northeast 259 298 5,300 -1,560 Descending New York Center
06:35PM 42.1214 -76.1642 29° Northeast 248 285 4,000 -720 Descending New York Center
06:36PM 42.1797 -76.1214 29° Northeast 237 273 3,900 -420 Descending New York Center
06:37PM 42.2339 -76.0725 34° Northeast 237 273 3,200 -840 Descending New York Center
06:38PM 42.2492 -76.0094 72° East 196 226 2,300 -540 Descending New York Center
06:39PM 42.2575 -75.9594 77° East 196 226 2,200 3,300 Descending New York Center
06:40PM 42.2761 -75.9133 61° Northeast 196 226 9,000 3,360 Climbing New York Center
06:41PM 42.2931 -75.8642 65° Northeast 196 226 9,000  Level New York Center
06:43PM 42.2250 -75.9570 North  Level Estimated
06:50PM 42.2000 -75.9667 North  Level FlightAware Approximate
06:51PM 42.2084 -75.9796 North  Level Estimated
06:52PM 42.2084 -75.9796 North  Level Estimated
06:53PM 42.2084 -75.9796 North  Level Estimated
06:54PM 42.2084 -75.9796 North  Level Estimated
06:55PM 42.2084 -75.9796 North  Level Estimated
06:56PM 42.2084 -75.9796 North  Level Estimated